createdAt,value
2024-02-16T00:00:20.398Z,1.43
2024-02-16T00:03:05.521Z,1.40
2024-02-16T00:05:52.548Z,1.48
2024-02-16T00:08:39.949Z,1.50
2024-02-16T00:11:26.402Z,1.70
2024-02-16T00:14:12.057Z,1.50
2024-02-16T00:16:57.392Z,1.40
2024-02-16T00:19:42.561Z,1.60
2024-02-16T00:22:27.412Z,1.80
2024-02-16T00:25:13.778Z,1.65
2024-02-16T00:28:00.360Z,1.57
2024-02-16T00:30:45.358Z,1.35
2024-02-16T00:33:30.782Z,1.58
2024-02-16T00:36:15.930Z,1.70
2024-02-16T00:39:01.211Z,1.60
2024-02-16T00:41:47.486Z,1.40
2024-02-16T00:44:32.559Z,1.60
2024-02-16T00:47:18.197Z,1.52
2024-02-16T00:50:06.318Z,1.30
2024-02-16T00:52:51.317Z,1.10
2024-02-16T00:55:36.395Z,1.20
2024-02-16T00:58:22.388Z,1.60
2024-02-16T01:01:11.510Z,1.58
2024-02-16T01:03:56.993Z,1.10
2024-02-16T01:06:42.263Z,1.50
2024-02-16T01:09:27.929Z,1.40
2024-02-16T01:12:13.043Z,1.45
2024-02-16T01:14:58.037Z,1.33
2024-02-16T01:17:43.536Z,1.52
2024-02-16T01:20:31.970Z,1.23
2024-02-16T01:23:17.007Z,1.27
2024-02-16T01:26:01.818Z,1.33
2024-02-16T01:28:47.105Z,1.60
2024-02-16T01:31:32.168Z,1.85
2024-02-16T01:34:17.648Z,1.20
2024-02-16T01:37:02.781Z,1.40
2024-02-16T01:39:47.970Z,1.33
2024-02-16T01:42:33.189Z,1.40
2024-02-16T01:45:18.550Z,1.50
2024-02-16T01:48:04.362Z,1.52
2024-02-16T01:50:50.476Z,1.43
2024-02-16T01:53:37.877Z,1.20
2024-02-16T01:56:23.728Z,1.25
2024-02-16T01:59:09.219Z,1.50
2024-02-16T02:01:54.082Z,1.58
2024-02-16T02:04:39.523Z,1.33
2024-02-16T02:07:27.884Z,1.63
2024-02-16T02:10:13.954Z,1.50
2024-02-16T02:12:58.925Z,1.50
2024-02-16T02:15:43.884Z,1.40
2024-02-16T02:18:29.163Z,1.70
2024-02-16T02:21:15.498Z,1.58
2024-02-16T02:24:00.474Z,1.63
2024-02-16T02:26:45.433Z,1.50
2024-02-16T02:29:30.928Z,1.52
2024-02-16T02:32:16.372Z,1.63
2024-02-16T02:35:02.971Z,1.70
2024-02-16T02:37:47.878Z,1.55
2024-02-16T02:40:33.004Z,1.90
2024-02-16T02:43:19.767Z,1.52
2024-02-16T02:46:04.908Z,1.73
2024-02-16T02:48:52.669Z,1.50
2024-02-16T02:51:38.230Z,1.60
2024-02-16T02:54:23.219Z,1.55
2024-02-16T02:57:08.507Z,1.60
2024-02-16T02:59:53.507Z,1.30
2024-02-16T03:02:39.656Z,1.50
2024-02-16T03:05:24.655Z,1.35
2024-02-16T03:08:11.891Z,1.90
2024-02-16T03:10:57.123Z,1.30
2024-02-16T03:13:42.227Z,2.00
2024-02-16T03:16:27.218Z,1.48
2024-02-16T03:19:12.469Z,1.70
2024-02-16T03:21:57.369Z,1.50
2024-02-16T03:24:42.297Z,1.45
2024-02-16T03:27:27.563Z,1.20
2024-02-16T03:30:12.594Z,1.40
2024-02-16T03:32:57.905Z,1.08
2024-02-16T03:35:42.918Z,1.30
2024-02-16T03:38:27.961Z,1.50
2024-02-16T03:41:24.108Z,1.47
2024-02-16T03:44:09.301Z,1.75
2024-02-16T03:46:56.742Z,1.38
2024-02-16T03:49:44.845Z,1.33
2024-02-16T03:52:30.157Z,1.45
2024-02-16T03:55:15.260Z,1.20
2024-02-16T03:58:00.309Z,1.50
2024-02-16T04:00:45.540Z,1.40
2024-02-16T04:03:30.618Z,1.20
2024-02-16T04:06:15.556Z,1.30
2024-02-16T04:09:00.723Z,0.90
2024-02-16T04:11:47.475Z,1.40
2024-02-16T04:14:33.579Z,1.20
2024-02-16T04:17:18.708Z,1.20
2024-02-16T04:20:04.191Z,1.25
2024-02-16T04:22:48.942Z,1.40
2024-02-16T04:25:33.897Z,1.30
2024-02-16T04:28:19.396Z,1.38
2024-02-16T04:31:04.882Z,1.30
2024-02-16T04:33:50.133Z,1.33
2024-02-16T04:36:35.812Z,1.40
2024-02-16T04:39:21.173Z,1.30
2024-02-16T04:42:06.307Z,0.93
2024-02-16T04:44:51.585Z,1.40
2024-02-16T04:47:36.819Z,1.33
2024-02-16T04:50:21.965Z,1.23
2024-02-16T04:53:06.996Z,1.30
2024-02-16T04:55:51.871Z,1.10
2024-02-16T04:58:41.458Z,1.50
2024-02-16T05:01:27.179Z,1.30
2024-02-16T05:04:14.505Z,1.20
2024-02-16T05:06:59.696Z,1.90
2024-02-16T05:09:45.490Z,1.40
2024-02-16T05:12:30.640Z,1.30
2024-02-16T05:15:16.582Z,1.40
2024-02-16T05:18:01.693Z,1.30
2024-02-16T05:20:48.088Z,1.40
2024-02-16T05:23:32.936Z,1.30
2024-02-16T05:26:17.879Z,0.82
2024-02-16T05:29:03.114Z,1.30
2024-02-16T05:31:48.668Z,1.50
2024-02-16T05:34:38.669Z,1.63
2024-02-16T05:37:24.138Z,1.58
2024-02-16T05:40:19.875Z,1.60
2024-02-16T05:43:05.684Z,1.50
2024-02-16T05:45:50.964Z,1.40
2024-02-16T05:48:40.396Z,1.42
2024-02-16T05:51:25.727Z,1.50
2024-02-16T05:54:11.908Z,1.02
2024-02-16T05:56:56.873Z,1.23
2024-02-16T05:59:42.954Z,1.27
2024-02-16T06:02:28.242Z,1.13
2024-02-16T06:05:13.498Z,1.25
2024-02-16T06:07:59.853Z,1.30
2024-02-16T06:10:45.459Z,1.40
2024-02-16T06:13:30.607Z,1.20
2024-02-16T06:16:15.613Z,1.10
2024-02-16T06:19:01.263Z,1.10
2024-02-16T06:21:46.244Z,1.30
2024-02-16T06:24:31.282Z,1.38
2024-02-16T06:27:16.933Z,1.30
2024-02-16T06:30:02.935Z,1.30
2024-02-16T06:32:48.530Z,1.25
2024-02-16T06:35:33.976Z,1.10
2024-02-16T06:38:19.292Z,1.38
2024-02-16T06:41:05.217Z,1.40
2024-02-16T06:43:50.419Z,1.60
2024-02-16T06:46:35.538Z,1.23
2024-02-16T06:49:20.904Z,1.30
2024-02-16T06:52:06.589Z,1.50
2024-02-16T06:54:52.788Z,1.17
2024-02-16T06:57:38.122Z,1.40
2024-02-16T07:00:23.921Z,1.75
2024-02-16T07:03:09.536Z,1.45
2024-02-16T07:05:54.697Z,1.45
2024-02-16T07:08:43.955Z,1.20
2024-02-16T07:11:29.545Z,1.30
2024-02-16T07:14:14.786Z,1.63
2024-02-16T07:16:59.675Z,1.35
2024-02-16T07:19:44.991Z,1.17
2024-02-16T07:22:30.273Z,1.40
2024-02-16T07:25:15.522Z,1.55
2024-02-16T07:28:00.587Z,1.70
2024-02-16T07:30:45.642Z,1.42
2024-02-16T07:33:31.133Z,1.52
2024-02-16T07:36:18.920Z,1.73
2024-02-16T07:39:05.746Z,1.25
2024-02-16T07:41:50.955Z,1.40
2024-02-16T07:44:37.210Z,1.48
2024-02-16T07:47:22.250Z,1.40
2024-02-16T07:50:07.466Z,1.40
2024-02-16T07:52:52.703Z,1.70
2024-02-16T07:55:37.984Z,1.63
2024-02-16T07:58:23.421Z,1.50
2024-02-16T08:01:08.437Z,1.50
2024-02-16T08:03:54.168Z,1.60
2024-02-16T08:06:39.780Z,1.73
2024-02-16T08:09:24.779Z,1.40
2024-02-16T08:12:09.764Z,1.52
2024-02-16T08:14:56.679Z,1.58
2024-02-16T08:17:42.545Z,2.20
2024-02-16T08:20:27.471Z,1.70
2024-02-16T08:23:12.616Z,1.60
2024-02-16T08:25:58.250Z,1.50
2024-02-16T08:28:45.694Z,2.00
2024-02-16T08:31:30.700Z,1.80
2024-02-16T08:34:15.914Z,1.55
2024-02-16T08:37:02.744Z,2.00
2024-02-16T08:39:48.325Z,1.60
2024-02-16T08:42:33.548Z,1.80
2024-02-16T08:45:18.778Z,1.50
2024-02-16T08:48:05.393Z,1.50
2024-02-16T08:50:50.920Z,1.65
2024-02-16T08:53:36.182Z,1.70
2024-02-16T08:56:21.541Z,1.70
2024-02-16T08:59:06.971Z,1.80
2024-02-16T09:01:52.155Z,2.05
2024-02-16T09:04:37.682Z,2.00
2024-02-16T09:07:23.808Z,1.77
2024-02-16T09:10:09.540Z,1.67
2024-02-16T09:12:54.423Z,2.07
2024-02-16T09:15:39.611Z,1.95
2024-02-16T09:18:24.822Z,1.92
2024-02-16T09:21:09.783Z,1.70
2024-02-16T09:23:55.014Z,1.77
2024-02-16T09:26:39.909Z,1.40
2024-02-16T09:29:25.164Z,1.70
2024-02-16T09:32:11.150Z,1.92
2024-02-16T09:34:57.259Z,1.58
2024-02-16T09:37:42.195Z,1.90
2024-02-16T09:40:27.447Z,2.10
2024-02-16T09:43:25.195Z,1.77
2024-02-16T09:46:10.935Z,1.95
2024-02-16T09:48:56.518Z,1.80
2024-02-16T09:51:41.850Z,2.00
2024-02-16T09:54:26.903Z,2.10
2024-02-16T09:57:12.142Z,1.83
2024-02-16T09:59:57.332Z,2.05
2024-02-16T10:02:44.191Z,2.00
2024-02-16T10:05:31.728Z,2.08
2024-02-16T10:08:16.812Z,1.87
2024-02-16T10:11:05.616Z,1.80
2024-02-16T10:14:04.885Z,1.77
2024-02-16T10:17:00.324Z,1.92
2024-02-16T10:19:45.477Z,2.28
2024-02-16T10:22:30.446Z,2.17
2024-02-16T10:25:15.745Z,2.13
2024-02-16T10:28:06.889Z,2.03
2024-02-16T10:30:52.437Z,1.88
2024-02-16T10:33:39.268Z,2.20
2024-02-16T10:36:26.079Z,1.97
2024-02-16T10:39:12.550Z,2.00
2024-02-16T10:41:58.540Z,2.13
2024-02-16T10:44:44.677Z,2.25
2024-02-16T10:47:30.147Z,2.30
2024-02-16T10:50:15.418Z,2.27
2024-02-16T10:53:24.526Z,2.20
2024-02-16T10:56:09.719Z,2.08
2024-02-16T10:58:55.222Z,2.00
2024-02-16T11:01:42.113Z,2.35
2024-02-16T11:04:40.349Z,2.20
2024-02-16T11:07:26.073Z,3.38
2024-02-16T11:10:13.962Z,2.30
2024-02-16T11:13:05.603Z,2.20
2024-02-16T11:15:58.603Z,2.20
2024-02-16T11:18:50.506Z,2.13
2024-02-16T11:21:35.729Z,2.10
2024-02-16T11:24:24.690Z,2.00
2024-02-16T11:27:11.392Z,1.65
2024-02-16T11:30:01.114Z,1.40
2024-02-16T11:32:47.282Z,1.70
2024-02-16T11:35:32.622Z,1.42
2024-02-16T11:38:19.621Z,1.50
2024-02-16T11:41:06.564Z,1.45
2024-02-16T11:43:51.771Z,1.60
2024-02-16T11:46:36.878Z,1.30
2024-02-16T11:49:21.924Z,1.77
2024-02-16T11:52:08.454Z,1.63
2024-02-16T11:54:53.327Z,1.60
2024-02-16T11:57:39.173Z,1.63
2024-02-16T12:00:24.414Z,1.50
2024-02-16T12:03:09.557Z,1.80
2024-02-16T12:05:58.905Z,1.70
2024-02-16T12:08:45.601Z,2.17
2024-02-16T12:11:30.918Z,1.90
2024-02-16T12:14:17.704Z,1.50
2024-02-16T12:17:02.789Z,1.90
2024-02-16T12:19:49.075Z,1.95
2024-02-16T12:22:34.415Z,1.67
2024-02-16T12:25:19.347Z,1.92
2024-02-16T12:28:04.960Z,1.63
2024-02-16T12:30:50.286Z,1.85
2024-02-16T12:33:35.751Z,2.00
2024-02-16T12:36:21.505Z,1.88
2024-02-16T12:39:07.222Z,2.13
2024-02-16T12:41:52.301Z,1.73
2024-02-16T12:44:37.242Z,1.80
2024-02-16T12:47:22.585Z,1.70
2024-02-16T12:50:08.083Z,2.10
2024-02-16T12:52:59.560Z,1.92
2024-02-16T12:55:48.937Z,2.03
2024-02-16T12:58:34.324Z,1.60
2024-02-16T13:01:25.892Z,1.60
2024-02-16T13:04:11.938Z,1.90
2024-02-16T13:06:56.888Z,2.00
2024-02-16T13:09:43.286Z,2.10
2024-02-16T13:12:28.517Z,2.22
2024-02-16T13:15:23.061Z,2.22
2024-02-16T13:18:13.470Z,2.17
2024-02-16T13:20:58.500Z,2.58
2024-02-16T13:23:43.418Z,2.60
2024-02-16T13:26:28.388Z,2.40
2024-02-16T13:29:13.519Z,3.38
2024-02-16T13:31:58.435Z,3.95
2024-02-16T13:34:43.911Z,3.50
2024-02-16T13:37:28.972Z,2.93
2024-02-16T13:40:14.278Z,2.92
2024-02-16T13:43:02.822Z,2.63
2024-02-16T13:45:55.067Z,2.80
2024-02-16T13:48:42.394Z,3.00
2024-02-16T13:51:27.873Z,3.10
2024-02-16T13:54:13.138Z,3.25
2024-02-16T13:56:58.309Z,3.30
2024-02-16T13:59:44.125Z,3.40
2024-02-16T14:02:29.290Z,3.05
2024-02-16T14:05:14.769Z,2.93
2024-02-16T14:08:01.055Z,3.35
2024-02-16T14:10:46.828Z,3.42
2024-02-16T14:13:32.044Z,3.85
2024-02-16T14:16:16.941Z,3.72
2024-02-16T14:19:02.208Z,4.27
2024-02-16T14:21:48.349Z,3.80
2024-02-16T14:24:33.497Z,3.70
2024-02-16T14:27:19.192Z,3.70
2024-02-16T14:30:05.208Z,3.40
2024-02-16T14:32:54.023Z,3.30
2024-02-16T14:35:39.878Z,3.42
2024-02-16T14:38:25.071Z,3.50
2024-02-16T14:41:10.615Z,3.30
2024-02-16T14:43:55.605Z,3.30
2024-02-16T14:46:40.585Z,3.13
2024-02-16T14:49:27.658Z,3.08
2024-02-16T14:52:12.964Z,3.15
2024-02-16T14:54:58.279Z,3.40
2024-02-16T14:57:45.128Z,2.90
2024-02-16T15:00:30.450Z,2.67
2024-02-16T15:03:16.474Z,2.67
2024-02-16T15:06:01.799Z,2.50
2024-02-16T15:08:47.038Z,2.10
2024-02-16T15:11:32.243Z,2.55
2024-02-16T15:14:20.224Z,2.30
2024-02-16T15:17:06.980Z,2.70
2024-02-16T15:19:52.718Z,2.58
2024-02-16T15:22:45.215Z,2.17
2024-02-16T15:25:34.075Z,2.25
2024-02-16T15:28:19.256Z,2.27
2024-02-16T15:31:05.298Z,2.35
2024-02-16T15:33:51.427Z,2.53
2024-02-16T15:36:37.404Z,2.30
2024-02-16T15:39:22.692Z,2.30
2024-02-16T15:42:12.911Z,1.97
2024-02-16T15:45:00.055Z,1.98
2024-02-16T15:47:45.095Z,2.80
2024-02-16T15:50:31.250Z,2.28
2024-02-16T15:53:16.576Z,2.20
2024-02-16T15:56:04.176Z,2.07
2024-02-16T15:58:49.384Z,2.40
2024-02-16T16:01:36.279Z,2.30
2024-02-16T16:04:21.417Z,2.88
2024-02-16T16:07:07.080Z,2.88
2024-02-16T16:09:54.622Z,1.70
2024-02-16T16:12:40.402Z,1.85
2024-02-16T16:15:25.787Z,2.10
2024-02-16T16:18:13.656Z,1.73
2024-02-16T16:20:58.925Z,2.00
2024-02-16T16:23:43.933Z,2.00
2024-02-16T16:26:28.774Z,1.70
2024-02-16T16:29:16.135Z,1.90
2024-02-16T16:32:06.278Z,1.65
2024-02-16T16:34:53.450Z,2.10
2024-02-16T16:37:38.367Z,1.70
2024-02-16T16:40:23.409Z,1.70
2024-02-16T16:43:08.346Z,1.80
2024-02-16T16:45:53.765Z,1.58
2024-02-16T16:48:39.305Z,1.75
2024-02-16T16:51:24.658Z,1.57
2024-02-16T16:54:10.249Z,1.70
2024-02-16T16:56:55.197Z,1.77
2024-02-16T16:59:40.333Z,2.42
2024-02-16T17:02:26.314Z,2.17
2024-02-16T17:05:12.268Z,2.63
2024-02-16T17:07:57.599Z,3.08
2024-02-16T17:10:42.531Z,2.78
2024-02-16T17:13:27.486Z,3.33
2024-02-16T17:16:13.074Z,3.30
2024-02-16T17:18:58.112Z,2.90
2024-02-16T17:21:43.784Z,2.88
2024-02-16T17:24:31.536Z,2.60
2024-02-16T17:27:17.714Z,3.00
2024-02-16T17:30:04.337Z,3.10
2024-02-16T17:32:49.904Z,3.10
2024-02-16T17:35:35.719Z,2.97
2024-02-16T17:38:21.706Z,3.17
2024-02-16T17:41:06.691Z,3.38
2024-02-16T17:43:51.876Z,3.30
2024-02-16T17:46:36.938Z,2.77
2024-02-16T17:49:23.495Z,3.13
2024-02-16T17:52:11.372Z,3.30
2024-02-16T17:54:56.682Z,3.40
2024-02-16T17:57:42.186Z,3.78
2024-02-16T18:00:27.751Z,3.50
2024-02-16T18:03:13.008Z,3.72
2024-02-16T18:05:59.428Z,3.72
2024-02-16T18:08:44.254Z,3.85
2024-02-16T18:11:29.473Z,4.18
2024-02-16T18:14:15.539Z,4.00
2024-02-16T18:17:01.091Z,3.80
2024-02-16T18:19:46.444Z,3.95
2024-02-16T18:22:31.520Z,3.75
2024-02-16T18:25:16.834Z,3.90
2024-02-16T18:28:01.818Z,4.27
2024-02-16T18:30:46.943Z,3.90
2024-02-16T18:33:32.136Z,4.15
2024-02-16T18:36:16.953Z,4.30
2024-02-16T18:39:03.089Z,4.55
2024-02-16T18:41:48.627Z,4.47
2024-02-16T18:44:33.755Z,3.97
2024-02-16T18:47:19.400Z,4.93
2024-02-16T18:50:05.964Z,4.93
2024-02-16T18:52:51.318Z,4.57
2024-02-16T18:55:36.420Z,4.70
2024-02-16T18:58:21.754Z,4.95
2024-02-16T19:01:06.778Z,5.07
2024-02-16T19:03:51.912Z,4.85
2024-02-16T19:06:37.443Z,5.07
2024-02-16T19:09:22.724Z,4.77
2024-02-16T19:12:08.462Z,4.65
2024-02-16T19:14:53.873Z,5.10
2024-02-16T19:17:39.333Z,5.10
2024-02-16T19:20:24.448Z,4.97
2024-02-16T19:23:13.420Z,4.87
2024-02-16T19:25:58.447Z,4.75
2024-02-16T19:28:43.658Z,4.90
2024-02-16T19:31:29.320Z,4.78
2024-02-16T19:34:14.455Z,5.30
2024-02-16T19:36:59.499Z,5.23
2024-02-16T19:39:44.906Z,4.88
2024-02-16T19:42:30.305Z,4.97
2024-02-16T19:45:25.262Z,4.60
2024-02-16T19:48:13.770Z,4.50
2024-02-16T19:50:58.802Z,4.87
2024-02-16T19:53:43.826Z,4.63
2024-02-16T19:56:28.753Z,5.28
2024-02-16T19:59:13.992Z,5.18
2024-02-16T20:01:59.167Z,5.63
2024-02-16T20:04:44.453Z,5.73
2024-02-16T20:07:34.511Z,5.72
2024-02-16T20:10:19.423Z,5.53
2024-02-16T20:13:05.081Z,5.50
2024-02-16T20:15:50.227Z,5.72
2024-02-16T20:18:35.641Z,5.60
2024-02-16T20:21:20.863Z,5.78
2024-02-16T20:24:06.448Z,5.60
2024-02-16T20:26:51.588Z,6.22
2024-02-16T20:29:36.996Z,5.72
2024-02-16T20:32:23.332Z,5.40
2024-02-16T20:35:08.538Z,5.50
2024-02-16T20:37:54.216Z,5.40
2024-02-16T20:40:39.450Z,4.97
2024-02-16T20:43:24.875Z,5.63
2024-02-16T20:46:10.170Z,5.47
2024-02-16T20:48:55.520Z,5.40
2024-02-16T20:51:40.445Z,5.90
2024-02-16T20:54:30.768Z,5.75
2024-02-16T20:57:15.986Z,5.18
2024-02-16T21:00:04.239Z,5.20
2024-02-16T21:02:50.409Z,5.57
2024-02-16T21:05:35.941Z,5.97
2024-02-16T21:08:21.211Z,5.97
2024-02-16T21:11:06.083Z,5.90
2024-02-16T21:13:50.984Z,5.80
2024-02-16T21:16:36.325Z,6.25
2024-02-16T21:19:21.659Z,6.88
2024-02-16T21:22:07.347Z,6.63
2024-02-16T21:24:52.430Z,5.88
2024-02-16T21:27:37.661Z,7.40
2024-02-16T21:30:22.548Z,6.72
2024-02-16T21:33:08.351Z,7.25
2024-02-16T21:35:57.027Z,8.07
2024-02-16T21:38:42.289Z,7.68
2024-02-16T21:41:27.322Z,7.87
2024-02-16T21:44:12.373Z,8.02
2024-02-16T21:46:59.644Z,7.55
2024-02-16T21:49:44.735Z,8.00
2024-02-16T21:52:29.632Z,7.95
2024-02-16T21:55:14.774Z,8.00
2024-02-16T21:57:59.804Z,7.70
2024-02-16T22:00:44.818Z,8.02
2024-02-16T22:03:30.321Z,7.43
2024-02-16T22:06:26.281Z,8.70
2024-02-16T22:09:11.205Z,8.37
2024-02-16T22:11:56.175Z,9.43
2024-02-16T22:14:41.540Z,9.20
2024-02-16T22:17:27.332Z,8.75
2024-02-16T22:20:12.817Z,9.38
2024-02-16T22:22:59.926Z,8.83
2024-02-16T22:25:44.987Z,8.95
2024-02-16T22:28:29.983Z,8.85
2024-02-16T22:31:15.111Z,8.27
2024-02-16T22:34:00.376Z,9.55
2024-02-16T22:36:45.823Z,9.60
2024-02-16T22:39:31.092Z,9.95
2024-02-16T22:42:16.457Z,9.48
2024-02-16T22:45:01.775Z,9.75
2024-02-16T22:47:48.365Z,10.25
2024-02-16T22:50:33.559Z,10.30
2024-02-16T22:53:18.547Z,9.60
2024-02-16T22:56:03.967Z,7.88
2024-02-16T22:58:49.013Z,6.75
2024-02-16T23:01:34.177Z,7.13
2024-02-16T23:04:19.179Z,7.43
2024-02-16T23:07:06.099Z,6.57
2024-02-16T23:09:51.405Z,7.40
2024-02-16T23:12:36.549Z,7.25
2024-02-16T23:15:24.335Z,7.70
2024-02-16T23:18:09.477Z,7.00
2024-02-16T23:20:55.062Z,7.32
2024-02-16T23:23:40.020Z,6.68
2024-02-16T23:26:25.099Z,6.80
2024-02-16T23:29:12.159Z,6.15
2024-02-16T23:32:00.614Z,6.73
2024-02-16T23:34:46.070Z,6.50
2024-02-16T23:37:31.191Z,6.85
2024-02-16T23:40:16.452Z,7.30
2024-02-16T23:43:01.780Z,7.53
2024-02-16T23:45:47.809Z,7.50
2024-02-16T23:48:33.120Z,6.82
2024-02-16T23:51:19.512Z,7.45
2024-02-16T23:54:04.631Z,7.25
2024-02-16T23:56:50.332Z,7.07
2024-02-16T23:59:35.306Z,7.40
